Clarksville, Missouri
Current Conditions -  °F | °C
As of 1:55 AM on Saturday 25 Oct 2014 (Local Time) from KPPQ Reporting Station
Clear Clear  
Wind Chill: 64°   Ceiling: Unl
Heat Index: 64°   Visibility: 10mi
Dew Point: 59°   Wind: 6mph
Humidity: 84%   Direction: 250°WSW
Pressure: 29.98"   Gusts: NA
Location:  39.37°N, 90.91°W
Report Text: KPPQ 250655Z AUTO 25005KT 10SM CLR 18/15 A2998 RMK AO2 T01770149
Loading
Personal Weather Stations






























Interactive Weather Map New forecast layout! Learn more

10-Day Weather Forecast

Advertisements
Track Severe Weather on mobile